Aeroporto :
LOGIN :

Iscrizione | Disclaimer

   EN    FR    IT 

 










Sommario :    VFR   VFR Marginale   IFR   IFR Intensivo   IFR Molto Intensivo
Visibilità : 
Base nubi : 
>= 8 km
>= 3000ft
5 / 8 km
1000 / 3000 ft
1500m / 5 km
500 / 1000 ft
800 / 1500m
200 / 500 ft
< 800m
< 200 ft
Simboli :   Temporali  Nebbia  Neve Forte  Precipitazioni Forti  Vento > 20 kt
SIGMETs :   Varie  Temporali  Ghiacco  Turbolenza  Onda orograficha  Ceneri Vulcaniche






- Altitudine del aeroporto : 183 ft
- Codice IATA : HAJ


EDDV - Hanover/Langenhagen Int.

ULTIMO METAR :
  • 122050Z 17005KT 140V210 9999 FEW030 05/02 Q1002 NOSIG

METARs OBSOLETI :
  • 122020Z 18005KT 9999 FEW023 SCT033 05/02 Q1002 NOSIG
  • 121950Z 17004KT 9999 FEW021 SCT031 05/02 Q1001 NOSIG
  • 121920Z 18004KT 150V210 9999 FEW027 BKN044 05/02 Q1001 NOSIG
  • 121850Z 19005KT 160V230 9999 BKN040 05/02 Q1001 NOSIG
  • 121820Z 23004KT 200V290 9999 SCT019 BKN048 06/03 Q1001 NOSIG

TAF TAF EDDV
Valido dal 12 a 18 ore il 13 a 18 ore UTC


121700Z 1218/1318 18008KT 9999 SCT030
PROB30
TEMPO 1218/1220 SHRA BKN015CB



MetMap, La meteo Aeronautica in un colpo d'occhio ! - Copyright ORBIFLY Dicembre 2007 - Disclaimer

ORBIFLY MET'MAP TEAM :

Programmazione e sviluppo : Alexandra Zaïnal
Concezione e sviluppo : Baudouin d'Aumeries
Co-Programmazione e sviluppo : Marc-Olivier Méhu
Supporto tecnico e logistico : Manuel Goepfert
Aiuto per la traduzione : Arnaldo La Scala

Contatto : metmap@orbifly.com




FONTI E CREDITI :

   NOAA